Time;durP1;ratioP1;P1;durP2;ratioP2;P2;SDS_P1;SDS_P2;PMS_P1;PMS_P2;Temp;Humidity;BMP_temperature;BMP_pressure;BME280_temperature;BME280_humidity;BME280_pressure;Samples;Min_cycle;Max_cycle;Signal;HPM_P1;HPM_P2
2022/04/18 00:00:20;;;;;;;11.60;6.45;;;;;;;1.47;89.07;100216.97;5014182;28;20061;-51
2022/04/18 00:03:07;;;;;;;16.58;6.38;;;;;;;1.47;89.93;100212.69;5013136;28;20068;-51
2022/04/18 00:05:51;;;;;;;13.50;7.15;;;;;;;1.54;91.33;100216.25;5016761;28;20492;-51
2022/04/18 00:08:35;;;;;;;17.50;7.07;;;;;;;1.57;90.22;100213.72;5012374;28;20098;-51
2022/04/18 00:11:20;;;;;;;13.68;6.53;;;;;;;1.64;90.12;100211.25;5017247;28;20050;-51
2022/04/18 00:14:05;;;;;;;10.50;5.28;;;;;;;1.69;90.76;100211.34;5012172;28;20049;-50
2022/04/18 00:16:49;;;;;;;12.75;5.82;;;;;;;1.72;91.61;100203.63;5011288;28;20095;-50
2022/04/18 00:19:34;;;;;;;16.98;6.60;;;;;;;1.79;91.27;100205.50;5011325;28;20389;-51
2022/04/18 00:22:18;;;;;;;11.98;5.85;;;;;;;1.84;93.00;100198.66;5014521;28;20049;-51
2022/04/18 00:25:03;;;;;;;15.23;6.88;;;;;;;1.87;92.39;100203.88;5013470;28;20053;-51
2022/04/18 00:27:49;;;;;;;16.35;7.47;;;;;;;1.93;93.92;100194.50;5023143;28;20053;-51
2022/04/18 00:30:33;;;;;;;13.35;6.28;;;;;;;2.02;91.98;100194.66;5013044;28;21974;-51
2022/04/18 00:33:18;;;;;;;13.45;6.80;;;;;;;2.06;93.08;100193.84;5012236;28;21061;-51
2022/04/18 00:36:02;;;;;;;15.43;7.30;;;;;;;2.03;91.49;100176.59;5010482;28;20881;-51
2022/04/18 00:38:47;;;;;;;13.43;6.00;;;;;;;2.19;90.89;100190.59;5019245;28;20048;-51
2022/04/18 00:41:31;;;;;;;14.82;6.70;;;;;;;2.25;89.27;100190.69;5013900;28;20049;-51
2022/04/18 00:44:16;;;;;;;13.43;7.15;;;;;;;2.30;89.03;100180.41;5010332;28;20058;-50
2022/04/18 00:47:00;;;;;;;14.50;7.30;;;;;;;2.37;88.29;100174.47;5014557;28;20106;-51
2022/04/18 00:49:45;;;;;;;15.45;7.70;;;;;;;2.42;89.04;100180.59;5019665;28;20410;-51
2022/04/18 00:52:30;;;;;;;14.32;7.57;;;;;;;2.45;89.61;100169.44;5018565;28;20503;-51
2022/04/18 00:55:15;;;;;;;13.13;6.68;;;;;;;2.52;89.71;100166.06;5010970;28;20061;-51
2022/04/18 00:58:01;;;;;;;12.55;6.57;;;;;;;2.58;88.59;100163.56;5009677;28;20053;-51
2022/04/18 01:00:47;;;;;;;14.30;6.82;;;;;;;2.62;88.96;100156.72;5008206;28;20549;-51
2022/04/18 01:03:31;;;;;;;12.93;6.28;;;;;;;2.65;88.77;100157.63;5005676;28;20128;-51
2022/04/18 01:06:16;;;;;;;13.07;6.97;;;;;;;2.68;90.45;100156.78;5008060;28;20079;-51
2022/04/18 01:09:02;;;;;;;16.42;7.35;;;;;;;2.65;91.00;100152.44;5008115;28;20704;-52
2022/04/18 01:11:48;;;;;;;12.32;6.88;;;;;;;2.57;92.92;100148.91;5006714;28;20818;-51
2022/04/18 01:14:48;;;;;;;15.70;7.15;;;;;;;2.70;89.90;100148.22;5005898;28;20103;-51
2022/04/18 01:17:32;;;;;;;14.13;6.10;;;;;;;2.72;90.48;100138.72;5007915;28;20052;-51
2022/04/18 01:20:36;;;;;;;15.73;7.13;;;;;;;2.70;90.28;100135.28;5009959;28;20049;-51
2022/04/18 01:23:43;;;;;;;12.88;7.57;;;;;;;2.62;90.80;100136.03;5006015;28;20057;-50
2022/04/18 01:29:37;;;;;;;15.07;7.65;;;;;;;2.30;94.07;100123.53;5008729;28;20068;-51
2022/04/18 01:32:22;;;;;;;13.25;7.57;;;;;;;2.30;93.07;100134.75;5008554;28;20096;-51
2022/04/18 01:35:07;;;;;;;13.00;7.18;;;;;;;2.17;93.48;100122.50;5006971;28;20053;-51
2022/04/18 01:37:52;;;;;;;14.95;7.28;;;;;;;2.15;93.69;100129.38;5008202;28;20053;-51
2022/04/18 01:40:37;;;;;;;15.27;7.80;;;;;;;2.05;95.83;100124.94;5010195;28;20587;-51
2022/04/18 01:43:24;;;;;;;15.85;7.43;;;;;;;2.02;96.49;100127.47;5006266;28;20045;-51
2022/04/18 01:46:09;;;;;;;12.18;6.60;;;;;;;1.97;95.69;100111.03;5012233;28;20409;-51
2022/04/18 01:48:55;;;;;;;12.65;6.95;;;;;;;1.87;95.92;100120.38;5005682;28;20057;-51
2022/04/18 01:51:40;;;;;;;14.18;6.63;;;;;;;1.75;96.88;100105.53;5007076;28;20038;-51
2022/04/18 01:54:26;;;;;;;9.15;5.47;;;;;;;1.34;100.00;100110.91;5012309;28;20470;-51
2022/04/18 01:57:11;;;;;;;11.30;5.57;;;;;;;1.06;100.00;100111.28;5008546;28;20066;-51
2022/04/18 01:59:56;;;;;;;14.95;6.65;;;;;;;1.06;100.00;100113.84;5013274;28;20488;-51
2022/04/18 02:02:41;;;;;;;16.70;7.30;;;;;;;1.08;98.67;100120.78;5011487;28;20484;-51
2022/04/18 02:05:26;;;;;;;17.98;7.65;;;;;;;1.12;97.40;100112.25;5006360;28;20397;-51
2022/04/18 02:08:11;;;;;;;13.45;5.80;;;;;;;0.99;96.54;100110.28;5007698;28;20057;-51
2022/04/18 02:10:55;;;;;;;11.75;6.25;;;;;;;1.05;92.71;100105.25;5007167;28;20050;-50
2022/04/18 02:13:49;;;;;;;7.78;4.75;;;;;;;1.24;89.47;100113.31;5015876;28;20053;-51
2022/04/18 02:16:34;;;;;;;14.27;5.93;;;;;;;1.13;87.81;100105.38;5019234;28;20148;-50
2022/04/18 02:19:21;;;;;;;11.27;5.65;;;;;;;1.23;86.70;100108.97;5015843;28;20053;-51
2022/04/18 02:22:05;;;;;;;13.68;6.40;;;;;;;1.22;86.44;100097.78;5016342;28;20072;-50
2022/04/18 02:24:50;;;;;;;18.15;7.63;;;;;;;1.25;86.62;100094.41;5020751;28;20041;-51
2022/04/18 02:27:36;;;;;;;13.02;6.40;;;;;;;1.22;86.02;100095.22;5011993;28;20061;-50
2022/04/18 02:30:23;;;;;;;22.05;8.73;;;;;;;1.16;85.31;100097.69;5031101;28;20057;-51
2022/04/18 02:33:08;;;;;;;22.38;9.32;;;;;;;1.13;84.46;100087.31;5010811;28;20057;-50
2022/04/18 02:35:53;;;;;;;18.75;8.13;;;;;;;1.03;84.13;100070.81;5023716;28;20435;-50
2022/04/18 02:38:40;;;;;;;22.20;8.60;;;;;;;1.11;84.94;100081.28;5013266;28;20500;-51
2022/04/18 02:41:25;;;;;;;15.98;7.68;;;;;;;1.11;84.16;100076.13;5011814;28;20537;-50
2022/04/18 02:44:10;;;;;;;17.92;7.90;;;;;;;1.05;83.88;100073.44;5019871;28;20419;-51
2022/04/18 02:46:55;;;;;;;16.60;7.63;;;;;;;1.00;84.97;100073.31;5029702;28;20041;-50
2022/04/18 02:49:39;;;;;;;20.77;8.63;;;;;;;0.98;84.46;100072.44;5011939;28;20038;-50
2022/04/18 02:52:26;;;;;;;20.27;8.45;;;;;;;0.89;85.90;100064.53;5014127;28;20490;-50
2022/04/18 02:55:11;;;;;;;22.15;9.65;;;;;;;0.85;85.27;100066.19;5023429;28;20837;-50
2022/04/18 02:57:56;;;;;;;23.13;10.00;;;;;;;0.79;85.92;100067.78;5018548;28;20056;-51
2022/04/18 03:00:45;;;;;;;22.45;10.50;;;;;;;0.76;86.11;100058.28;5010271;28;20494;-51
2022/04/18 03:03:29;;;;;;;20.02;8.90;;;;;;;0.66;89.63;100057.25;5015615;28;20504;-50
2022/04/18 03:06:14;;;;;;;18.52;8.38;;;;;;;0.63;91.21;100058.91;5011393;28;20064;-51
2022/04/18 03:08:59;;;;;;;20.02;8.35;;;;;;;0.54;91.16;100045.84;5016838;28;20034;-51
2022/04/18 03:11:43;;;;;;;15.38;7.15;;;;;;;0.54;91.84;100051.00;5013208;28;20041;-51
2022/04/18 03:14:29;;;;;;;14.02;6.88;;;;;;;0.40;92.73;100049.00;5023974;28;20047;-50
2022/04/18 03:17:19;;;;;;;14.82;7.32;;;;;;;0.28;91.73;100046.19;5011515;28;20918;-50
2022/04/18 03:20:05;;;;;;;16.85;7.63;;;;;;;0.20;98.36;100046.03;5008913;28;20053;-50
2022/04/18 03:22:49;;;;;;;16.77;7.78;;;;;;;0.13;100.00;100054.50;5009449;28;20416;-50
2022/04/18 03:25:46;;;;;;;16.33;7.68;;;;;;;0.07;100.00;100053.50;5007785;28;20764;-50
2022/04/18 03:28:32;;;;;;;20.17;9.27;;;;;;;0.06;100.00;100044.88;5023432;28;20037;-50
2022/04/18 03:31:17;;;;;;;19.70;8.57;;;;;;;0.11;99.43;100053.56;5008203;28;20074;-50
2022/04/18 03:34:01;;;;;;;14.98;7.22;;;;;;;0.11;97.46;100039.84;5009204;28;20049;-50
2022/04/18 03:39:50;;;;;;;19.88;9.52;;;;;;;0.01;96.64;100043.06;5009703;28;20050;-50
2022/04/18 03:42:35;;;;;;;20.60;9.45;;;;;;;-0.05;97.91;100042.06;5007839;28;20060;-50
2022/04/18 03:45:23;;;;;;;24.13;9.27;;;;;;;-0.11;99.38;100043.66;5023061;28;20077;-50
2022/04/18 03:48:09;;;;;;;20.33;8.98;;;;;;;-0.18;99.74;100042.66;5009518;28;20045;-50
2022/04/18 03:50:53;;;;;;;17.50;8.82;;;;;;;-0.33;100.00;100047.44;5009188;28;20041;-50
2022/04/18 03:53:38;;;;;;;23.77;8.93;;;;;;;-0.35;100.00;100047.44;5009014;28;20408;-50
2022/04/18 03:56:23;;;;;;;19.60;8.77;;;;;;;-0.27;100.00;100038.16;5022368;28;20771;-50
2022/04/18 03:59:27;;;;;;;17.60;8.27;;;;;;;-0.22;98.20;100038.28;5013340;28;20053;-50
2022/04/18 04:02:18;;;;;;;23.50;9.93;;;;;;;-0.29;100.00;100037.28;5007983;28;21394;-50
2022/04/18 04:05:08;;;;;;;19.67;9.75;;;;;;;-0.37;100.00;100030.19;5006502;28;20037;-50
2022/04/18 04:07:53;;;;;;;24.77;9.68;;;;;;;-0.31;100.00;100035.50;4996027;28;20045;-50
2022/04/18 04:10:50;;;;;;;24.55;11.20;;;;;;;-0.29;100.00;100033.84;5014294;28;20049;-50
2022/04/18 04:13:35;;;;;;;21.40;10.68;;;;;;;-0.23;100.00;100033.94;5021562;28;20857;-50
2022/04/18 04:16:50;;;;;;;21.17;11.05;;;;;;;-0.25;100.00;100039.06;5008478;28;20053;-51
2022/04/18 04:19:36;;;;;;;24.80;11.77;;;;;;;-0.19;100.00;100040.06;5006659;28;20068;-51
2022/04/18 04:22:30;;;;;;;31.25;12.73;;;;;;;-0.11;100.00;100038.50;5021589;28;20049;-50
2022/04/18 04:25:26;;;;;;;29.65;13.80;;;;;;;0.00;99.41;100039.63;5019480;28;20485;-50
2022/04/18 04:28:11;;;;;;;35.80;15.27;;;;;;;0.03;99.26;100042.22;5008910;28;20064;-50
2022/04/18 04:30:56;;;;;;;52.35;23.42;;;;;;;0.02;100.00;100039.63;5007304;28;20686;-50
2022/04/18 04:33:41;;;;;;;46.38;22.10;;;;;;;0.17;100.00;100045.13;5008217;28;20074;-50
2022/04/18 04:36:26;;;;;;;50.50;23.63;;;;;;;0.39;100.00;100046.38;5006488;28;20460;-50
2022/04/18 04:39:14;;;;;;;55.00;25.50;;;;;;;0.61;100.00;100039.94;5007516;28;20057;-50
2022/04/18 04:42:01;;;;;;;50.22;25.88;;;;;;;0.84;100.00;100045.53;5007335;28;20049;-50
2022/04/18 04:44:46;;;;;;;52.80;24.52;;;;;;;1.29;99.06;100036.81;5007178;28;20104;-50
2022/04/18 04:47:37;;;;;;;50.08;24.42;;;;;;;1.89;97.02;100037.72;5010280;28;20069;-50
2022/04/18 04:50:22;;;;;;;47.05;23.92;;;;;;;2.49;94.46;100034.16;5009553;28;20468;-50
2022/04/18 04:53:13;;;;;;;45.22;22.25;;;;;;;2.88;90.32;100040.59;5010976;28;21816;-50
2022/04/18 04:55:58;;;;;;;39.97;20.33;;;;;;;3.65;86.01;100030.00;5014901;28;20054;-50
2022/04/18 04:58:43;;;;;;;40.70;20.67;;;;;;;4.44;84.41;100031.25;5006851;28;20057;-50
2022/04/18 05:01:29;;;;;;;41.28;19.30;;;;;;;4.91;78.46;100023.59;5010306;28;20060;-51
2022/04/18 05:04:19;;;;;;;38.80;20.65;;;;;;;5.51;74.11;100028.78;5020868;28;20128;-51
2022/04/18 05:07:07;;;;;;;32.90;18.10;;;;;;;6.36;74.18;100020.78;5007692;28;20049;-50
2022/04/18 05:10:10;;;;;;;34.63;18.73;;;;;;;6.62;66.80;100031.94;5018570;28;20048;-51
2022/04/18 05:12:56;;;;;;;36.35;19.23;;;;;;;7.17;64.24;100021.16;5011804;28;20049;-51
2022/04/18 05:15:40;;;;;;;34.20;17.83;;;;;;;7.55;66.07;100014.75;5012466;28;20053;-52
2022/04/18 05:18:43;;;;;;;31.13;17.23;;;;;;;7.32;64.68;100020.16;5005290;28;20137;-51
2022/04/18 05:21:29;;;;;;;29.92;15.93;;;;;;;7.38;63.02;100020.13;5019761;28;20053;-52
2022/04/18 05:24:18;;;;;;;28.88;15.93;;;;;;;7.52;61.24;100024.34;5012285;28;20045;-52
2022/04/18 05:27:03;;;;;;;28.80;14.40;;;;;;;7.05;62.09;100021.22;5009861;28;20053;-52
2022/04/18 05:29:49;;;;;;;26.15;15.32;;;;;;;7.05;62.86;100025.59;5011934;28;20045;-52
2022/04/18 05:32:34;;;;;;;25.25;14.40;;;;;;;7.94;60.99;100015.22;5010657;28;20719;-51
2022/04/18 05:35:24;;;;;;;29.33;14.65;;;;;;;8.03;61.36;100022.09;5007325;28;20076;-52
2022/04/18 05:38:09;;;;;;;27.65;14.65;;;;;;;8.37;59.13;100023.41;5015887;28;20056;-52
2022/04/18 05:41:09;;;;;;;27.13;15.00;;;;;;;8.41;58.39;100026.88;5016244;28;20049;-52
2022/04/18 05:43:54;;;;;;;25.35;14.13;;;;;;;8.19;61.42;100027.13;5016801;28;20724;-52
2022/04/18 05:46:44;;;;;;;19.75;12.13;;;;;;;8.95;60.19;100032.22;5016938;28;20656;-51
2022/04/18 05:49:29;;;;;;;19.48;11.95;;;;;;;10.00;55.30;100018.22;5011650;28;20080;-52
2022/04/18 05:52:18;;;;;;;23.73;12.82;;;;;;;10.04;53.61;100015.53;5012471;28;20052;-52
2022/04/18 05:55:06;;;;;;;22.48;12.63;;;;;;;10.60;53.18;100023.13;5013036;28;20060;-51
2022/04/18 05:57:52;;;;;;;22.65;12.35;;;;;;;10.52;49.94;100023.28;5018783;28;20046;-52
2022/04/18 06:00:37;;;;;;;21.25;11.68;;;;;;;10.55;49.49;100030.22;5028472;28;20053;-52
2022/04/18 06:03:21;;;;;;;19.38;11.75;;;;;;;10.02;51.83;100026.91;5024109;28;20052;-52
2022/04/18 06:06:05;;;;;;;18.30;11.65;;;;;;;11.39;49.98;100017.78;5012262;28;20508;-51
2022/04/18 06:08:50;;;;;;;18.95;11.20;;;;;;;11.52;48.54;100026.19;5022512;28;20053;-52
2022/04/18 06:11:40;;;;;;;22.80;11.70;;;;;;;10.81;49.08;100034.03;5024750;28;20065;-52
2022/04/18 06:14:32;;;;;;;21.65;13.10;;;;;;;10.13;49.91;100038.03;5028802;28;20116;-52
2022/04/18 06:17:16;;;;;;;24.55;13.10;;;;;;;10.42;51.76;100032.22;5014801;28;20602;-53
2022/04/18 06:20:02;;;;;;;21.33;12.45;;;;;;;10.17;51.82;100031.84;5014118;28;20131;-52
2022/04/18 06:22:47;;;;;;;23.23;13.57;;;;;;;10.10;51.95;100038.09;5012321;28;20461;-52
2022/04/18 06:25:33;;;;;;;23.23;13.00;;;;;;;9.99;52.30;100034.81;5013216;28;20762;-52
2022/04/18 06:28:21;;;;;;;21.77;13.10;;;;;;;10.76;51.42;100035.00;5033586;28;20208;-52
2022/04/18 06:31:05;;;;;;;23.55;14.07;;;;;;;10.59;50.52;100034.50;5012074;28;20072;-52
2022/04/18 06:33:58;;;;;;;21.75;13.90;;;;;;;11.29;49.65;100039.88;5013494;28;20057;-52
2022/04/18 06:36:43;;;;;;;21.15;11.75;;;;;;;10.93;51.30;100036.38;5027564;28;20070;-52
2022/04/18 06:39:44;;;;;;;23.67;15.55;;;;;;;10.22;51.81;100037.84;5007954;28;20060;-52
2022/04/18 06:42:38;;;;;;;22.38;13.07;;;;;;;10.27;51.93;100045.66;5007611;28;20044;-52
2022/04/18 06:45:31;;;;;;;22.45;13.65;;;;;;;10.91;51.88;100040.78;5008669;28;20067;-52
2022/04/18 06:48:16;;;;;;;21.17;13.02;;;;;;;10.08;50.55;100034.66;5016764;28;20046;-52
2022/04/18 06:51:27;;;;;;;23.15;13.13;;;;;;;11.68;49.05;100026.69;5020766;28;20120;-52
2022/04/18 06:54:38;;;;;;;26.38;13.70;;;;;;;11.47;47.86;100030.69;5013003;28;20054;-53
2022/04/18 06:57:30;;;;;;;22.63;13.30;;;;;;;11.09;49.96;100036.88;5011670;28;20148;-52
2022/04/18 07:00:16;;;;;;;23.38;14.13;;;;;;;11.57;47.45;100033.94;5004475;28;20053;-53
2022/04/18 07:03:00;;;;;;;23.85;14.02;;;;;;;11.43;48.39;100023.81;5004979;28;20038;-53
2022/04/18 07:05:45;;;;;;;19.80;12.35;;;;;;;12.36;46.99;100033.59;5004668;28;20058;-53
2022/04/18 07:08:30;;;;;;;21.45;11.75;;;;;;;13.14;45.64;100025.97;5010905;28;20049;-52
2022/04/18 07:11:26;;;;;;;20.45;12.15;;;;;;;12.13;44.53;100034.25;5020541;28;20068;-53
2022/04/18 07:14:15;;;;;;;20.80;12.45;;;;;;;12.22;47.19;100026.13;5019147;28;20049;-53
2022/04/18 07:17:00;;;;;;;20.45;12.30;;;;;;;12.37;44.65;100033.53;5006669;28;20049;-52
2022/04/18 07:19:45;;;;;;;20.08;12.27;;;;;;;11.89;45.38;100030.50;5029133;28;20052;-52
2022/04/18 07:22:40;;;;;;;21.63;12.40;;;;;;;11.66;45.63;100031.09;5021039;28;20053;-53
2022/04/18 07:25:28;;;;;;;17.45;11.35;;;;;;;12.26;45.96;100024.25;5017830;28;20084;-53
2022/04/18 07:28:31;;;;;;;21.50;11.77;;;;;;;12.43;45.21;100029.88;5016695;28;20068;-52
2022/04/18 07:31:17;;;;;;;22.27;12.65;;;;;;;12.68;43.83;100026.53;5011032;28;20655;-52
2022/04/18 07:34:02;;;;;;;19.95;11.48;;;;;;;13.10;43.50;100021.72;5019273;28;20042;-53
2022/04/18 07:36:47;;;;;;;20.05;11.73;;;;;;;12.65;44.38;100021.38;5010716;28;20094;-53
2022/04/18 07:39:32;;;;;;;21.65;12.20;;;;;;;12.28;45.52;100025.06;5006845;28;20057;-54
2022/04/18 07:42:19;;;;;;;18.30;11.27;;;;;;;13.29;42.87;100019.34;5006696;28;20120;-52
2022/04/18 07:45:04;;;;;;;17.40;10.50;;;;;;;13.48;42.08;100023.09;5006648;28;20100;-53
2022/04/18 07:47:52;;;;;;;14.70;8.95;;;;;;;14.18;40.66;100024.19;4995717;28;20635;-52
2022/04/18 07:53:42;;;;;;;14.98;9.93;;;;;;;13.80;40.71;100022.00;5004807;28;20042;-53
2022/04/18 07:56:28;;;;;;;16.95;11.50;;;;;;;13.96;42.29;100017.06;5010674;28;20476;-53
2022/04/18 07:59:13;;;;;;;16.42;10.23;;;;;;;14.51;41.22;100016.84;4990546;28;20045;-53
2022/04/18 08:01:58;;;;;;;18.35;9.90;;;;;;;14.71;39.58;100019.56;5013740;28;20049;-53
2022/04/18 08:05:18;;;;;;;13.13;8.02;;;;;;;15.13;38.17;100025.84;5023171;28;20048;-53
2022/04/18 08:08:10;;;;;;;16.85;10.15;;;;;;;14.51;38.94;100016.84;5026079;28;20148;-52
2022/04/18 08:10:57;;;;;;;16.45;10.13;;;;;;;14.38;38.37;100010.28;5005365;28;20053;-53
2022/04/18 08:13:43;;;;;;;13.15;8.35;;;;;;;14.02;39.00;100018.63;5004399;28;20045;-52
2022/04/18 08:16:45;;;;;;;10.52;7.05;;;;;;;15.35;37.41;100010.00;5005748;28;20504;-53
2022/04/18 08:19:42;;;;;;;12.05;7.57;;;;;;;14.93;37.70;100014.31;5003257;28;20050;-54
2022/04/18 08:22:26;;;;;;;9.15;6.30;;;;;;;15.67;35.84;100002.56;5006710;28;20041;-53
2022/04/18 08:25:31;;;;;;;10.00;5.75;;;;;;;16.31;35.25;100002.31;5012840;28;20061;-53
2022/04/18 08:28:48;;;;;;;12.85;7.72;;;;;;;16.21;35.52;100003.69;5014533;28;20073;-53
2022/04/18 08:31:32;;;;;;;10.70;7.05;;;;;;;15.08;35.75;100009.34;5010930;28;20056;-52
2022/04/18 08:34:21;;;;;;;12.27;6.70;;;;;;;14.59;36.32;100001.63;5011264;28;20053;-53
2022/04/18 08:37:07;;;;;;;10.30;7.20;;;;;;;13.75;35.99;100002.91;5004389;28;20057;-53
2022/04/18 08:40:11;;;;;;;11.52;7.30;;;;;;;13.29;37.23;100000.94;5009737;28;20061;-52
2022/04/18 08:42:58;;;;;;;11.77;7.13;;;;;;;13.21;37.12;99992.44;5010766;28;20053;-52
2022/04/18 08:45:43;;;;;;;14.82;8.73;;;;;;;14.30;39.27;99994.78;4994169;28;20057;-52
2022/04/18 08:54:35;;;;;;;8.68;4.65;;;;;;;14.25;35.72;99994.06;5007266;28;19936;-53
2022/04/18 08:57:20;;;;;;;8.27;5.50;;;;;;;15.08;36.68;99990.88;5005856;28;20056;-53
2022/04/18 09:00:06;;;;;;;9.15;6.13;;;;;;;15.37;36.45;99982.66;5005339;28;20948;-52
2022/04/18 09:02:52;;;;;;;11.77;7.65;;;;;;;15.24;37.16;99985.84;5014800;28;20124;-53
2022/04/18 09:05:42;;;;;;;10.60;5.70;;;;;;;14.40;35.10;99987.38;5005518;28;20099;-53
2022/04/18 09:08:29;;;;;;;9.00;5.78;;;;;;;13.59;36.79;99979.81;5019493;28;20102;-53
2022/04/18 09:11:33;;;;;;;9.25;5.80;;;;;;;14.00;37.70;99976.53;5004828;28;20692;-53
2022/04/18 09:14:20;;;;;;;9.50;4.88;;;;;;;14.83;35.43;99977.84;5018199;28;20633;-53
2022/04/18 09:17:09;;;;;;;7.88;5.30;;;;;;;14.84;35.98;99980.41;5003751;28;20054;-52
2022/04/18 09:20:13;;;;;;;7.35;4.85;;;;;;;15.11;35.82;99972.28;5005656;28;20092;-53
2022/04/18 09:23:00;;;;;;;8.73;5.78;;;;;;;14.46;35.02;99966.03;5028085;28;20069;-53
2022/04/18 09:25:44;;;;;;;20.88;13.55;;;;;;;14.70;35.41;99972.19;5017301;28;20415;-52
2022/04/18 09:28:31;;;;;;;11.77;7.22;;;;;;;14.77;34.13;99960.47;5021673;28;20060;-52
2022/04/18 09:31:19;;;;;;;10.88;7.35;;;;;;;14.10;34.82;99965.66;5014277;28;20080;-52
2022/04/18 09:34:05;;;;;;;15.52;10.23;;;;;;;14.07;34.09;99957.88;5014044;28;20049;-52
2022/04/18 09:37:10;;;;;;;5.07;2.90;;;;;;;13.91;34.03;99961.09;5017022;28;20050;-52
2022/04/18 09:39:55;;;;;;;9.43;4.95;;;;;;;14.49;33.15;99952.75;5010707;28;20110;-52
2022/04/18 09:42:44;;;;;;;10.98;6.03;;;;;;;14.32;34.23;99953.41;5013229;28;20045;-53
2022/04/18 09:45:41;;;;;;;5.68;2.97;;;;;;;14.03;31.91;99947.44;5009331;28;20061;-53
2022/04/18 09:48:31;;;;;;;3.30;2.33;;;;;;;13.80;32.27;99945.66;5016676;28;20443;-52
2022/04/18 09:51:24;;;;;;;4.47;2.03;;;;;;;14.02;32.16;99934.34;5011413;28;20871;-52
2022/04/18 09:54:24;;;;;;;5.53;2.95;;;;;;;13.63;33.27;99942.78;4976662;28;20095;-53
2022/04/18 09:57:10;;;;;;;4.93;2.08;;;;;;;13.61;33.27;99935.84;5006061;28;20465;-52
2022/04/18 09:59:59;;;;;;;4.95;1.70;;;;;;;13.61;32.75;99941.13;5011107;28;20480;-52
2022/04/18 10:02:44;;;;;;;3.05;1.70;;;;;;;13.82;31.82;99935.09;5005785;28;20135;-53
2022/04/18 10:05:28;;;;;;;3.85;1.60;;;;;;;14.30;32.29;99922.75;5010517;28;20053;-53
2022/04/18 10:08:15;;;;;;;3.95;1.42;;;;;;;14.38;30.35;99928.59;5009714;28;20100;-52
2022/04/18 10:11:02;;;;;;;3.83;2.92;;;;;;;14.98;31.72;99919.19;5012764;28;20138;-53
2022/04/18 10:13:48;;;;;;;7.30;3.65;;;;;;;15.75;32.27;99908.88;5010045;28;21751;-53
2022/04/18 10:16:32;;;;;;;4.47;3.25;;;;;;;15.18;31.72;99916.59;5006674;28;20843;-53
2022/04/18 10:19:52;;;;;;;4.30;3.63;;;;;;;14.46;31.19;99923.88;5012076;28;21783;-52
2022/04/18 10:23:09;;;;;;;9.82;6.40;;;;;;;14.06;31.87;99914.03;5011240;28;20515;-52
2022/04/18 10:26:12;;;;;;;7.43;4.90;;;;;;;14.40;31.48;99911.81;5017905;28;20396;-53
2022/04/18 10:29:03;;;;;;;6.43;3.95;;;;;;;14.20;32.35;99912.59;5018124;28;20045;-52
2022/04/18 10:31:52;;;;;;;4.68;3.20;;;;;;;14.93;31.42;99907.97;5017755;28;20053;-53
2022/04/18 10:34:38;;;;;;;8.65;5.90;;;;;;;14.68;31.87;99911.59;5009869;28;20412;-53
2022/04/18 10:37:24;;;;;;;3.88;2.70;;;;;;;14.48;32.19;99908.88;5014069;28;20053;-52
2022/04/18 10:40:09;;;;;;;4.95;2.63;;;;;;;13.88;32.79;99907.69;5016994;28;20056;-55
2022/04/18 10:42:55;;;;;;;5.90;2.35;;;;;;;14.16;31.69;99916.25;5015847;28;20100;-53
2022/04/18 10:45:40;;;;;;;3.85;2.00;;;;;;;14.03;31.95;99910.59;5017644;28;20053;-53
2022/04/18 10:48:44;;;;;;;3.47;1.83;;;;;;;14.95;32.00;99901.72;5017779;28;20736;-52
2022/04/18 10:51:29;;;;;;;2.40;1.70;;;;;;;14.89;31.40;99891.44;5019456;28;20063;-52
2022/04/18 10:54:20;;;;;;;5.20;3.95;;;;;;;14.79;31.13;99895.38;5017234;28;20676;-53
2022/04/18 10:57:11;;;;;;;3.28;2.20;;;;;;;15.05;32.36;99885.53;5020476;28;20053;-53
2022/04/18 10:59:56;;;;;;;5.97;2.35;;;;;;;14.49;31.89;99878.97;5017715;28;20049;-53
2022/04/18 11:02:42;;;;;;;4.13;2.00;;;;;;;13.81;32.58;99883.34;5025634;28;20529;-53
2022/04/18 11:05:36;;;;;;;6.40;3.70;;;;;;;13.54;32.76;99895.75;5024260;28;20052;-53
2022/04/18 11:08:25;;;;;;;7.47;4.22;;;;;;;14.02;33.02;99890.44;5024165;28;20530;-53
2022/04/18 11:11:17;;;;;;;4.07;2.67;;;;;;;13.73;31.59;99896.78;5017177;28;20050;-53
2022/04/18 11:14:12;;;;;;;4.07;2.03;;;;;;;13.71;32.06;99889.84;5009218;28;20049;-52
2022/04/18 11:17:02;;;;;;;3.58;2.00;;;;;;;14.29;31.64;99889.44;5010268;28;20049;-53
2022/04/18 11:19:46;;;;;;;2.85;1.77;;;;;;;14.08;31.90;99888.50;5012028;28;20053;-52
2022/04/18 11:22:31;;;;;;;4.35;2.20;;;;;;;14.66;31.66;99880.97;5008486;28;20052;-53
2022/04/18 11:25:16;;;;;;;4.38;1.70;;;;;;;14.88;31.90;99868.63;5010038;28;20172;-52
2022/04/18 11:28:02;;;;;;;7.78;2.95;;;;;;;14.89;31.30;99870.34;5010330;28;20099;-53
2022/04/18 11:30:47;;;;;;;3.33;1.90;;;;;;;14.58;30.82;99873.38;5012547;28;20050;-51
2022/04/18 11:33:33;;;;;;;6.30;3.40;;;;;;;14.54;31.03;99869.16;5012207;28;20076;-53
2022/04/18 11:36:23;;;;;;;4.85;1.73;;;;;;;14.82;31.30;99868.00;5018155;28;20049;-52
2022/04/18 11:39:10;;;;;;;2.22;1.50;;;;;;;14.70;31.43;99859.69;5010406;28;20066;-52
2022/04/18 11:42:05;;;;;;;2.22;1.77;;;;;;;14.96;31.56;99848.06;5012107;28;20076;-52
2022/04/18 11:44:51;;;;;;;3.05;2.45;;;;;;;15.24;31.75;99860.06;5007844;28;20075;-53
2022/04/18 11:47:44;;;;;;;3.25;1.80;;;;;;;14.63;31.60;99858.22;5017539;28;20069;-54
2022/04/18 11:50:29;;;;;;;3.75;2.05;;;;;;;14.52;31.90;99849.03;5015623;28;20600;-53
2022/04/18 11:53:13;;;;;;;3.55;2.05;;;;;;;15.01;32.41;99842.56;5018625;28;20057;-52
2022/04/18 11:56:03;;;;;;;4.18;2.53;;;;;;;15.05;30.45;99838.06;5015743;28;21347;-53
2022/04/18 11:58:48;;;;;;;5.70;3.58;;;;;;;15.52;30.68;99835.94;5011510;28;20060;-52
2022/04/18 12:07:40;;;;;;;5.20;2.60;;;;;;;14.13;32.36;99823.31;5016820;28;20049;-51
2022/04/18 12:10:31;;;;;;;3.25;1.85;;;;;;;14.24;32.18;99819.38;5019454;28;20045;-52
2022/04/18 12:13:16;;;;;;;3.42;2.30;;;;;;;13.80;31.26;99826.34;5019367;28;20161;-52
2022/04/18 12:16:01;;;;;;;4.68;2.13;;;;;;;14.35;31.73;99825.97;5020615;28;20036;-51
2022/04/18 12:18:46;;;;;;;3.00;1.77;;;;;;;13.95;30.95;99831.03;5012585;28;20107;-52
2022/04/18 12:21:31;;;;;;;4.50;2.67;;;;;;;14.17;32.47;99827.56;5017469;28;20053;-52
2022/04/18 12:24:15;;;;;;;3.35;2.17;;;;;;;14.60;31.44;99807.44;5016016;28;20049;-52
2022/04/18 12:26:59;;;;;;;11.75;6.53;;;;;;;14.53;30.98;99805.94;5010196;28;20053;-52
2022/04/18 12:29:45;;;;;;;11.07;6.88;;;;;;;14.38;31.00;99810.03;5010326;28;20061;-52
2022/04/18 12:32:36;;;;;;;5.95;3.78;;;;;;;14.42;30.40;99814.25;5009586;28;20527;-52
2022/04/18 12:35:43;;;;;;;3.08;1.85;;;;;;;13.70;31.38;99810.03;5010913;28;20644;-52
2022/04/18 12:38:39;;;;;;;4.25;2.70;;;;;;;13.72;31.02;99813.50;5014697;28;20048;-53
2022/04/18 12:41:38;;;;;;;4.50;2.40;;;;;;;13.14;30.26;99799.81;5022191;28;20053;-52
2022/04/18 12:44:22;;;;;;;5.72;1.90;;;;;;;13.88;31.38;99799.75;5008332;28;20103;-53
2022/04/18 12:47:18;;;;;;;3.28;2.42;;;;;;;14.41;31.13;99796.75;5012233;28;20053;-52
2022/04/18 12:50:07;;;;;;;3.53;2.47;;;;;;;14.02;31.20;99789.53;5011248;28;20045;-53
2022/04/18 12:52:52;;;;;;;2.70;2.00;;;;;;;14.11;30.68;99791.81;5013808;28;20056;-52
2022/04/18 12:55:36;;;;;;;4.75;3.05;;;;;;;14.31;30.82;99782.25;5017368;28;20045;-52
2022/04/18 12:58:21;;;;;;;3.92;3.28;;;;;;;14.33;31.47;99785.66;5011667;28;20796;-52
2022/04/18 13:01:07;;;;;;;3.53;2.70;;;;;;;14.52;30.22;99783.16;5008965;28;20049;-53
2022/04/18 13:03:53;;;;;;;3.92;1.80;;;;;;;14.76;29.51;99765.47;5009583;28;20045;-52
2022/04/18 13:06:38;;;;;;;8.80;4.40;;;;;;;14.62;32.13;99772.16;5021360;28;20061;-53
2022/04/18 13:09:22;;;;;;;4.47;2.03;;;;;;;14.20;31.31;99769.47;5014128;28;20565;-52
2022/04/18 13:12:08;;;;;;;3.42;2.40;;;;;;;13.82;31.32;99771.88;5008209;28;20063;-52
2022/04/18 13:14:58;;;;;;;6.68;3.53;;;;;;;14.18;31.25;99760.81;5015074;28;20033;-52
2022/04/18 13:18:01;;;;;;;5.07;3.30;;;;;;;14.19;31.38;99752.81;5014079;28;20166;-52
2022/04/18 13:20:46;;;;;;;3.08;2.10;;;;;;;14.40;31.59;99753.75;5013448;28;20041;-52